Time;durP1;ratioP1;P1;durP2;ratioP2;P2;SDS_P1;SDS_P2;PMS_P1;PMS_P2;Temp;Humidity;BMP_temperature;BMP_pressure;BME280_temperature;BME280_humidity;BME280_pressure;Samples;Min_cycle;Max_cycle;Signal;HPM_P1;HPM_P2
2023/03/18 00:01:26;;;;;;;0.00;0.00;;;9.90;99.90;;;;;;5030739;28;20174;-66
2023/03/18 00:03:52;;;;;;;0.00;0.00;;;9.80;99.90;;;;;;5029268;28;20182;-66
2023/03/18 00:06:20;;;;;;;0.00;0.00;;;9.90;99.90;;;;;;5030639;28;20184;-66
2023/03/18 00:08:47;;;;;;;0.00;0.00;;;9.80;99.90;;;;;;5030314;28;20174;-66
2023/03/18 00:11:15;;;;;;;0.00;0.00;;;9.80;99.90;;;;;;5030609;28;20224;-66
2023/03/18 00:13:41;;;;;;;0.32;0.32;;;9.80;99.90;;;;;;5030558;28;20174;-66
2023/03/18 00:16:10;;;;;;;0.00;0.00;;;9.80;99.90;;;;;;5030211;28;20248;-66
2023/03/18 00:18:36;;;;;;;0.00;0.00;;;9.80;99.90;;;;;;5030346;28;20301;-66
2023/03/18 00:21:03;;;;;;;0.00;0.00;;;9.70;99.90;;;;;;5030523;28;20221;-66
2023/03/18 00:23:29;;;;;;;0.00;0.00;;;9.70;99.90;;;;;;5030251;28;20182;-66
2023/03/18 00:25:56;;;;;;;0.00;0.00;;;9.70;99.90;;;;;;5030295;28;20269;-64
2023/03/18 00:28:23;;;;;;;0.10;0.10;;;9.70;99.90;;;;;;5029235;28;20178;-65
2023/03/18 00:30:49;;;;;;;0.00;0.00;;;9.70;99.90;;;;;;5030576;28;20840;-65
2023/03/18 00:33:15;;;;;;;0.00;0.00;;;9.70;99.90;;;;;;5030558;28;20194;-65
2023/03/18 00:35:41;;;;;;;0.00;0.00;;;9.60;99.90;;;;;;5029335;28;20189;-65
2023/03/18 00:38:08;;;;;;;0.00;0.00;;;9.60;99.90;;;;;;5030237;28;20218;-65
2023/03/18 00:40:52;;;;;;;0.00;0.00;;;9.60;99.90;;;;;;5030481;28;20182;-64
2023/03/18 00:43:21;;;;;;;0.00;0.00;;;9.60;99.90;;;;;;5030453;28;20186;-64
2023/03/18 00:45:49;;;;;;;0.00;0.00;;;9.60;99.90;;;;;;5030479;28;20178;-64
2023/03/18 00:48:16;;;;;;;0.00;0.00;;;9.50;99.90;;;;;;5029665;28;20170;-64
2023/03/18 00:50:43;;;;;;;0.00;0.00;;;9.50;99.90;;;;;;5032393;28;20265;-64
2023/03/18 00:53:10;;;;;;;0.00;0.00;;;9.50;99.90;;;;;;5041524;28;20181;-64
2023/03/18 00:55:36;;;;;;;0.00;0.00;;;9.50;99.90;;;;;;5035025;28;20642;-66
2023/03/18 00:58:02;;;;;;;0.00;0.00;;;9.40;99.90;;;;;;5030053;28;20209;-66
2023/03/18 01:00:27;;;;;;;0.00;0.00;;;9.40;99.90;;;;;;5033575;28;20177;-65
2023/03/18 01:02:53;;;;;;;0.20;0.20;;;9.40;99.90;;;;;;5031967;28;20186;-65
2023/03/18 01:05:19;;;;;;;0.00;0.00;;;9.40;99.90;;;;;;5030873;28;20645;-65
2023/03/18 01:07:46;;;;;;;0.00;0.00;;;9.30;99.90;;;;;;5033558;28;20192;-65
2023/03/18 01:10:13;;;;;;;0.00;0.00;;;9.30;99.90;;;;;;5029993;28;20198;-65
2023/03/18 01:12:40;;;;;;;0.00;0.00;;;9.30;99.90;;;;;;5044017;28;20268;-65
2023/03/18 01:15:08;;;;;;;0.00;0.00;;;9.30;99.90;;;;;;5036188;28;20700;-65
2023/03/18 01:17:34;;;;;;;0.00;0.00;;;9.30;99.90;;;;;;5029969;28;20225;-65
2023/03/18 01:19:59;;;;;;;0.00;0.00;;;9.20;99.90;;;;;;5029574;28;20170;-65
2023/03/18 01:22:25;;;;;;;0.00;0.00;;;9.20;99.90;;;;;;5037393;28;20193;-65
2023/03/18 01:24:51;;;;;;;0.00;0.00;;;9.20;99.90;;;;;;5028896;28;20202;-65
2023/03/18 01:27:17;;;;;;;0.00;0.00;;;9.10;99.90;;;;;;5040516;28;20178;-65
2023/03/18 01:29:42;;;;;;;0.10;0.10;;;9.10;99.90;;;;;;5042895;28;20691;-65
2023/03/18 01:32:08;;;;;;;0.00;0.00;;;9.10;99.90;;;;;;5031518;28;20293;-65
2023/03/18 01:34:34;;;;;;;0.00;0.00;;;9.10;99.90;;;;;;5030467;28;20676;-65
2023/03/18 01:37:01;;;;;;;0.00;0.00;;;9.00;99.90;;;;;;5037972;28;20295;-65
2023/03/18 01:39:26;;;;;;;0.43;0.43;;;9.00;99.90;;;;;;5040340;28;20189;-65
2023/03/18 01:41:52;;;;;;;0.00;0.00;;;9.10;99.90;;;;;;5037647;28;20524;-65
2023/03/18 01:44:20;;;;;;;0.00;0.00;;;9.00;99.90;;;;;;5017337;28;20606;-65
2023/03/18 01:46:48;;;;;;;0.00;0.00;;;9.00;99.90;;;;;;5041142;28;20159;-65
2023/03/18 01:49:35;;;;;;;0.00;0.00;;;9.00;99.90;;;;;;5033175;28;20202;-65
2023/03/18 01:52:07;;;;;;;0.00;0.00;;;9.00;99.90;;;;;;5046752;28;20216;-66
2023/03/18 01:54:38;;;;;;;0.00;0.00;;;8.90;99.90;;;;;;5036928;28;20298;-65
2023/03/18 01:57:04;;;;;;;0.00;0.00;;;8.90;99.90;;;;;;5033263;28;20300;-65
2023/03/18 01:59:33;;;;;;;0.00;0.00;;;8.90;99.90;;;;;;5033377;28;20273;-65
2023/03/18 02:02:08;;;;;;;0.00;0.00;;;8.90;99.90;;;;;;5032909;28;20196;-65
2023/03/18 02:04:41;;;;;;;0.00;0.00;;;8.90;99.90;;;;;;5032588;28;20213;-65
2023/03/18 02:07:12;;;;;;;0.00;0.00;;;8.90;99.90;;;;;;5034189;28;20593;-65
2023/03/18 02:09:37;;;;;;;0.13;0.13;;;8.90;99.90;;;;;;5032994;28;20182;-65
2023/03/18 02:12:04;;;;;;;0.03;0.03;;;8.90;99.90;;;;;;5036588;28;20187;-65
2023/03/18 03:18:06;;;;;;;0.00;0.00;;;8.10;99.90;;;;;;4924080;28;20286;-58
2023/03/18 03:20:34;;;;;;;0.00;0.00;;;8.10;99.90;;;;;;4971937;28;20188;-58
2023/03/18 03:23:00;;;;;;;0.00;0.00;;;8.10;99.90;;;;;;4971915;28;20184;-58
2023/03/18 03:25:27;;;;;;;0.00;0.00;;;8.10;99.90;;;;;;4972360;28;20191;-58
2023/03/18 03:27:53;;;;;;;0.00;0.00;;;8.00;99.90;;;;;;4969862;28;20183;-58
2023/03/18 03:30:19;;;;;;;0.00;0.00;;;8.00;99.90;;;;;;4970339;28;20212;-58
2023/03/18 03:32:45;;;;;;;0.00;0.00;;;8.00;99.90;;;;;;4961718;28;20271;-58
2023/03/18 03:35:14;;;;;;;0.00;0.00;;;8.00;99.90;;;;;;4967667;28;20661;-58
2023/03/18 03:37:39;;;;;;;0.00;0.00;;;8.00;99.90;;;;;;4978411;28;20247;-58
2023/03/18 03:40:06;;;;;;;0.03;0.03;;;8.00;99.90;;;;;;4971926;28;20681;-58
2023/03/18 03:42:32;;;;;;;0.00;0.00;;;8.00;99.90;;;;;;4972340;28;20577;-58
2023/03/18 03:44:58;;;;;;;0.00;0.00;;;7.90;99.90;;;;;;4971774;28;20202;-58
2023/03/18 03:47:24;;;;;;;0.00;0.00;;;7.90;99.90;;;;;;4971658;28;20184;-58
2023/03/18 03:49:51;;;;;;;0.00;0.00;;;7.90;99.90;;;;;;4972015;28;20651;-58
2023/03/18 03:52:18;;;;;;;0.00;0.00;;;7.90;99.90;;;;;;4971925;28;20183;-58
2023/03/18 03:54:44;;;;;;;0.00;0.00;;;7.80;99.90;;;;;;4972111;28;20330;-58
2023/03/18 03:57:10;;;;;;;0.10;0.10;;;7.80;99.90;;;;;;4971802;28;20247;-58
2023/03/18 03:59:36;;;;;;;0.00;0.00;;;7.80;99.90;;;;;;4953855;28;20551;-58
2023/03/18 04:02:02;;;;;;;0.00;0.00;;;7.80;99.90;;;;;;4971149;28;20192;-59
2023/03/18 04:04:28;;;;;;;0.00;0.00;;;7.70;99.90;;;;;;4971367;28;20886;-58
2023/03/18 04:06:54;;;;;;;0.00;0.00;;;7.70;99.90;;;;;;4971875;28;20821;-58
2023/03/18 04:09:20;;;;;;;0.00;0.00;;;7.70;99.90;;;;;;4971397;28;20187;-58
2023/03/18 04:11:46;;;;;;;0.00;0.00;;;7.70;99.90;;;;;;4971604;28;20191;-58
2023/03/18 04:14:12;;;;;;;0.10;0.10;;;7.70;99.90;;;;;;4970391;28;20205;-58
2023/03/18 04:16:38;;;;;;;0.00;0.00;;;7.60;99.90;;;;;;4971103;28;20259;-58
2023/03/18 04:19:06;;;;;;;0.00;0.00;;;7.60;99.90;;;;;;4971008;28;20711;-57
2023/03/18 04:21:31;;;;;;;0.00;0.00;;;7.60;99.90;;;;;;4954055;28;20215;-58
2023/03/18 04:23:57;;;;;;;0.00;0.00;;;7.60;99.90;;;;;;4971346;28;20211;-58
2023/03/18 04:26:23;;;;;;;0.00;0.00;;;7.60;99.90;;;;;;4971208;28;20275;-58
2023/03/18 04:28:48;;;;;;;0.00;0.00;;;7.60;99.90;;;;;;4971827;28;20550;-58
2023/03/18 04:31:14;;;;;;;0.00;0.00;;;7.50;99.90;;;;;;4971428;28;20180;-58
2023/03/18 04:33:40;;;;;;;0.00;0.00;;;7.60;99.90;;;;;;4970782;28;20611;-58
2023/03/18 04:36:06;;;;;;;0.82;0.82;;;7.50;99.90;;;;;;4971403;28;20192;-58
2023/03/18 04:38:31;;;;;;;0.00;0.00;;;7.50;99.90;;;;;;4970563;28;20238;-58
2023/03/18 04:40:57;;;;;;;0.00;0.00;;;7.50;99.90;;;;;;4971395;28;20184;-58
2023/03/18 04:43:23;;;;;;;0.00;0.00;;;7.50;99.90;;;;;;4970917;28;20628;-58
2023/03/18 04:45:49;;;;;;;0.00;0.00;;;7.40;99.90;;;;;;4971389;28;20184;-58
2023/03/18 04:48:14;;;;;;;0.00;0.00;;;7.40;99.90;;;;;;4970866;28;20219;-58
2023/03/18 04:50:40;;;;;;;0.00;0.00;;;7.40;99.90;;;;;;4971167;28;20666;-58
2023/03/18 04:53:05;;;;;;;0.30;0.30;;;7.30;99.90;;;;;;4970827;28;20655;-58
2023/03/18 04:55:31;;;;;;;0.00;0.00;;;7.30;99.90;;;;;;4971215;28;20235;-58
2023/03/18 04:57:57;;;;;;;0.20;0.20;;;7.30;99.90;;;;;;4971275;28;20793;-58
2023/03/18 05:00:23;;;;;;;0.00;0.00;;;7.20;99.90;;;;;;4970574;28;20188;-58
2023/03/18 05:02:49;;;;;;;0.00;0.00;;;7.20;99.90;;;;;;4958673;28;20531;-58
2023/03/18 05:05:15;;;;;;;0.00;0.00;;;7.20;99.90;;;;;;4971039;28;20184;-58
2023/03/18 05:07:43;;;;;;;0.00;0.00;;;7.10;99.90;;;;;;4971313;28;20180;-58
2023/03/18 05:10:10;;;;;;;0.13;0.13;;;7.10;99.90;;;;;;4972425;28;20185;-58
2023/03/18 05:12:35;;;;;;;0.00;0.00;;;7.10;99.90;;;;;;4974477;28;20841;-58
2023/03/18 05:15:02;;;;;;;0.00;0.00;;;7.10;99.90;;;;;;4959258;28;20275;-58
2023/03/18 05:17:27;;;;;;;0.00;0.00;;;7.10;99.90;;;;;;4974433;28;20589;-58
2023/03/18 05:19:53;;;;;;;0.00;0.00;;;7.10;99.90;;;;;;4974960;28;20195;-58
2023/03/18 05:22:20;;;;;;;0.00;0.00;;;7.00;99.90;;;;;;4974368;28;20701;-58
2023/03/18 05:24:47;;;;;;;0.00;0.00;;;7.00;99.90;;;;;;4974817;28;20193;-58
2023/03/18 05:27:15;;;;;;;0.00;0.00;;;6.90;99.90;;;;;;4974521;28;20207;-58
2023/03/18 05:29:41;;;;;;;0.00;0.00;;;6.90;99.90;;;;;;4974652;28;20195;-58
2023/03/18 05:32:08;;;;;;;0.00;0.00;;;6.80;99.90;;;;;;4974386;28;20608;-58
2023/03/18 05:34:36;;;;;;;0.00;0.00;;;6.80;99.90;;;;;;4974739;28;20196;-58
2023/03/18 05:37:05;;;;;;;0.10;0.10;;;6.80;99.90;;;;;;4974142;28;20215;-58
2023/03/18 05:39:32;;;;;;;0.00;0.00;;;6.80;99.90;;;;;;4974433;28;20380;-58
2023/03/18 05:41:57;;;;;;;0.00;0.00;;;6.80;99.90;;;;;;4974042;28;20196;-58
2023/03/18 05:44:23;;;;;;;0.00;0.00;;;6.80;99.90;;;;;;4974199;28;20577;-58
2023/03/18 05:46:51;;;;;;;0.00;0.00;;;6.80;99.90;;;;;;4974299;28;20202;-58
2023/03/18 05:49:17;;;;;;;0.00;0.00;;;6.80;99.90;;;;;;4973706;28;20267;-58
2023/03/18 05:51:43;;;;;;;0.00;0.00;;;6.80;99.90;;;;;;4974077;28;20180;-58
2023/03/18 05:54:09;;;;;;;0.00;0.00;;;6.80;99.90;;;;;;4974146;28;20188;-58
2023/03/18 05:56:35;;;;;;;0.00;0.00;;;6.90;99.90;;;;;;4973809;28;20184;-58
2023/03/18 05:59:00;;;;;;;0.00;0.00;;;6.90;99.90;;;;;;4973431;28;20262;-58
2023/03/18 06:01:26;;;;;;;0.00;0.00;;;6.90;99.90;;;;;;4973744;28;20272;-58
2023/03/18 06:03:52;;;;;;;0.00;0.00;;;7.00;99.90;;;;;;4974196;28;20271;-58
2023/03/18 06:06:18;;;;;;;0.10;0.10;;;7.00;99.90;;;;;;4973454;28;20192;-58
2023/03/18 06:08:45;;;;;;;0.30;0.20;;;7.00;99.90;;;;;;4973554;28;20657;-58
2023/03/18 06:11:11;;;;;;;0.00;0.00;;;7.00;99.90;;;;;;4973111;28;20195;-58
2023/03/18 06:13:37;;;;;;;0.00;0.00;;;7.10;99.90;;;;;;4973496;28;20184;-58
2023/03/18 06:16:03;;;;;;;0.28;0.28;;;7.10;99.90;;;;;;4973465;28;20180;-58
2023/03/18 06:18:29;;;;;;;0.00;0.00;;;7.20;99.90;;;;;;4972989;28;20228;-58
2023/03/18 06:20:56;;;;;;;0.00;0.00;;;7.20;99.90;;;;;;4970518;28;20541;-59
2023/03/18 06:23:21;;;;;;;0.00;0.00;;;7.30;99.90;;;;;;4972581;28;20198;-58
2023/03/18 06:25:48;;;;;;;0.00;0.00;;;7.40;99.90;;;;;;4973732;28;20192;-58
2023/03/18 06:28:14;;;;;;;0.00;0.00;;;7.50;99.90;;;;;;4973598;28;20667;-58
2023/03/18 06:30:40;;;;;;;0.00;0.00;;;7.60;99.90;;;;;;4973260;28;20190;-58
2023/03/18 06:33:07;;;;;;;0.00;0.00;;;7.80;99.90;;;;;;4972219;28;20216;-58
2023/03/18 06:35:33;;;;;;;0.00;0.00;;;7.90;99.90;;;;;;4973302;28;20203;-58
2023/03/18 06:37:58;;;;;;;0.00;0.00;;;8.10;99.90;;;;;;4973166;28;20647;-58
2023/03/18 06:40:24;;;;;;;0.00;0.00;;;8.30;99.90;;;;;;4971447;28;20180;-59
2023/03/18 06:42:50;;;;;;;0.00;0.00;;;8.40;99.90;;;;;;4973351;28;20630;-58
2023/03/18 06:45:16;;;;;;;0.20;0.20;;;8.60;99.90;;;;;;4972468;28;20388;-59
2023/03/18 06:47:42;;;;;;;0.10;0.10;;;8.70;99.90;;;;;;4972561;28;20553;-58
2023/03/18 06:50:09;;;;;;;0.10;0.10;;;8.80;99.90;;;;;;4967232;28;20188;-57
2023/03/18 06:52:36;;;;;;;0.00;0.00;;;8.90;99.90;;;;;;4973188;28;20175;-58
2023/03/18 06:55:02;;;;;;;0.00;0.00;;;9.00;99.90;;;;;;4973273;28;20169;-58
2023/03/18 06:57:28;;;;;;;0.00;0.00;;;9.30;99.90;;;;;;4973399;28;20259;-57
2023/03/18 06:59:53;;;;;;;0.00;0.00;;;9.70;99.90;;;;;;4973061;28;20176;-57
2023/03/18 07:02:22;;;;;;;0.00;0.00;;;10.20;99.90;;;;;;4973007;28;20191;-57
2023/03/18 07:04:48;;;;;;;0.00;0.00;;;10.70;99.90;;;;;;4972990;28;20180;-58
2023/03/18 07:07:14;;;;;;;0.00;0.00;;;11.20;99.90;;;;;;4973130;28;20276;-58
2023/03/18 07:09:39;;;;;;;0.00;0.00;;;11.70;99.90;;;;;;4973145;28;20686;-58
2023/03/18 07:12:05;;;;;;;0.00;0.00;;;12.20;99.90;;;;;;4972958;28;20250;-58
2023/03/18 07:14:31;;;;;;;0.00;0.00;;;12.60;99.90;;;;;;4973146;28;20235;-60
2023/03/18 07:16:57;;;;;;;0.00;0.00;;;13.00;99.90;;;;;;4972311;28;20183;-60
2023/03/18 07:19:23;;;;;;;0.00;0.00;;;13.60;99.90;;;;;;4972730;28;20374;-59
2023/03/18 07:21:48;;;;;;;0.00;0.00;;;14.20;99.60;;;;;;4972909;28;20230;-59
2023/03/18 07:24:16;;;;;;;0.00;0.00;;;14.70;98.70;;;;;;4972356;28;20184;-59
2023/03/18 07:26:41;;;;;;;0.08;0.08;;;14.90;97.50;;;;;;4972376;28;20219;-57
2023/03/18 07:29:07;;;;;;;0.00;0.00;;;14.80;97.30;;;;;;4971443;28;20216;-58
2023/03/18 07:31:33;;;;;;;0.00;0.00;;;14.90;97.80;;;;;;4972540;28;20196;-59
2023/03/18 07:33:58;;;;;;;0.10;0.10;;;15.20;97.80;;;;;;4970965;28;20671;-58
2023/03/18 07:36:25;;;;;;;0.00;0.00;;;15.40;96.80;;;;;;4972263;28;20184;-58
2023/03/18 07:38:51;;;;;;;0.00;0.00;;;15.60;95.80;;;;;;4972184;28;20251;-58
2023/03/18 07:41:17;;;;;;;0.00;0.00;;;15.40;95.70;;;;;;4972144;28;20269;-58
2023/03/18 07:43:42;;;;;;;0.00;0.00;;;15.30;95.00;;;;;;4972766;28;20191;-58
2023/03/18 07:46:08;;;;;;;0.00;0.00;;;15.20;95.40;;;;;;4972293;28;20180;-59
2023/03/18 07:48:33;;;;;;;0.00;0.00;;;15.10;95.10;;;;;;4972376;28;20176;-58
2023/03/18 07:51:00;;;;;;;0.00;0.00;;;15.10;95.10;;;;;;4972309;28;20187;-58
2023/03/18 07:53:26;;;;;;;0.00;0.00;;;15.00;95.00;;;;;;4972426;28;20546;-57
2023/03/18 07:55:52;;;;;;;0.00;0.00;;;15.00;94.70;;;;;;4972252;28;20672;-59
2023/03/18 07:58:18;;;;;;;0.00;0.00;;;14.90;94.50;;;;;;4941897;28;20233;-58
2023/03/18 08:00:44;;;;;;;0.00;0.00;;;14.90;94.50;;;;;;4972578;28;20263;-59
2023/03/18 08:03:11;;;;;;;0.00;0.00;;;15.10;94.80;;;;;;4971961;28;20598;-60
2023/03/18 08:05:37;;;;;;;0.00;0.00;;;15.50;95.00;;;;;;4972232;28;20208;-59
2023/03/18 08:08:04;;;;;;;0.00;0.00;;;16.10;94.70;;;;;;4971921;28;20262;-58
2023/03/18 08:10:30;;;;;;;0.00;0.00;;;16.90;93.90;;;;;;4972166;28;20184;-59
2023/03/18 08:12:56;;;;;;;0.00;0.00;;;17.60;92.90;;;;;;4972130;28;20203;-59
2023/03/18 08:15:22;;;;;;;0.00;0.00;;;18.40;91.90;;;;;;4972037;28;20183;-58
2023/03/18 08:17:48;;;;;;;0.00;0.00;;;19.00;90.20;;;;;;4971839;28;20368;-58
2023/03/18 08:20:14;;;;;;;0.00;0.00;;;19.60;86.80;;;;;;4971738;28;20655;-57
2023/03/18 08:22:40;;;;;;;0.00;0.00;;;19.50;82.10;;;;;;4971859;28;20175;-58
2023/03/18 08:25:06;;;;;;;0.00;0.00;;;19.30;82.10;;;;;;4971944;28;20184;-58
2023/03/18 08:27:32;;;;;;;0.00;0.00;;;19.10;82.80;;;;;;4963159;28;20204;-58
2023/03/18 08:29:58;;;;;;;0.00;0.00;;;19.10;82.40;;;;;;4969174;28;20208;-58
2023/03/18 08:32:24;;;;;;;0.00;0.00;;;19.10;81.80;;;;;;4971107;28;20607;-58
2023/03/18 08:34:50;;;;;;;0.00;0.00;;;18.90;80.20;;;;;;4971514;28;20176;-58
2023/03/18 08:37:15;;;;;;;0.00;0.00;;;18.70;80.30;;;;;;4970880;28;20234;-58
2023/03/18 08:39:43;;;;;;;0.00;0.00;;;18.50;81.10;;;;;;4971552;28;20195;-59
2023/03/18 08:42:09;;;;;;;0.00;0.00;;;18.30;82.00;;;;;;4971193;28;20184;-58
2023/03/18 08:44:35;;;;;;;0.00;0.00;;;18.10;82.90;;;;;;4970653;28;20176;-58
2023/03/18 08:47:00;;;;;;;0.00;0.00;;;18.00;83.60;;;;;;4975829;28;20267;-58
2023/03/18 08:49:26;;;;;;;0.00;0.00;;;17.90;83.00;;;;;;4975226;28;20183;-58
2023/03/18 08:51:52;;;;;;;0.00;0.00;;;17.90;81.40;;;;;;4975645;28;20183;-58
2023/03/18 08:54:18;;;;;;;0.00;0.00;;;18.00;81.20;;;;;;4957829;28;20176;-58
2023/03/18 08:56:44;;;;;;;0.00;0.00;;;18.00;81.00;;;;;;4975053;28;20194;-58
2023/03/18 08:59:10;;;;;;;0.17;0.03;;;17.90;81.60;;;;;;4975378;28;20215;-58
2023/03/18 09:01:36;;;;;;;0.00;0.00;;;17.90;81.60;;;;;;4975301;28;20188;-58
2023/03/18 09:04:02;;;;;;;0.00;0.00;;;17.90;82.30;;;;;;4975265;28;20180;-59
2023/03/18 09:06:28;;;;;;;0.00;0.00;;;18.00;84.10;;;;;;4975121;28;20253;-58
2023/03/18 09:08:54;;;;;;;0.43;0.43;;;18.10;84.30;;;;;;4974797;28;20274;-58
2023/03/18 09:11:19;;;;;;;0.00;0.00;;;18.40;84.40;;;;;;4975227;28;20275;-58
2023/03/18 09:13:45;;;;;;;0.00;0.00;;;18.80;82.50;;;;;;4966417;28;20620;-58
2023/03/18 09:16:11;;;;;;;0.00;0.00;;;19.10;79.60;;;;;;4950155;28;20725;-58
2023/03/18 09:18:36;;;;;;;0.00;0.00;;;19.60;77.20;;;;;;4974283;28;20236;-58
2023/03/18 09:21:03;;;;;;;0.00;0.00;;;20.00;72.80;;;;;;4974905;28;20185;-58
2023/03/18 09:23:30;;;;;;;0.00;0.00;;;20.50;67.60;;;;;;4973978;28;20192;-58
2023/03/18 09:25:56;;;;;;;0.00;0.00;;;20.80;63.60;;;;;;4975232;28;20184;-58
2023/03/18 09:28:22;;;;;;;0.00;0.00;;;20.70;61.10;;;;;;4974828;28;20715;-58
2023/03/18 09:30:48;;;;;;;0.00;0.00;;;20.80;63.60;;;;;;4975057;28;20227;-57
2023/03/18 09:33:14;;;;;;;0.00;0.00;;;20.90;63.90;;;;;;4974574;28;20274;-57
2023/03/18 09:35:41;;;;;;;0.00;0.00;;;21.10;62.50;;;;;;4974620;28;20203;-57
2023/03/18 09:38:12;;;;;;;0.00;0.00;;;21.10;61.00;;;;;;4974489;28;20566;-58
2023/03/18 09:41:05;;;;;;;0.00;0.00;;;21.20;61.80;;;;;;4974962;28;20181;-58
2023/03/18 09:44:11;;;;;;;0.00;0.00;;;21.50;61.20;;;;;;4968848;28;20180;-58
2023/03/18 09:47:20;;;;;;;0.00;0.00;;;21.60;57.90;;;;;;4972803;28;20553;-57
2023/03/18 09:50:22;;;;;;;0.00;0.00;;;21.60;56.10;;;;;;4960774;28;20180;-58
2023/03/18 09:53:03;;;;;;;0.00;0.00;;;21.70;54.50;;;;;;4974356;28;20183;-58
2023/03/18 09:55:38;;;;;;;0.00;0.00;;;21.80;52.90;;;;;;4973688;28;20536;-58
2023/03/18 09:58:15;;;;;;;0.00;0.00;;;21.90;52.00;;;;;;4973066;28;20220;-58
2023/03/18 10:00:41;;;;;;;0.00;0.00;;;21.70;53.00;;;;;;4974305;28;20180;-57
2023/03/18 10:03:18;;;;;;;0.00;0.00;;;21.50;51.60;;;;;;4973828;28;20188;-58
2023/03/18 10:05:54;;;;;;;0.00;0.00;;;21.40;51.30;;;;;;4966181;28;20651;-58
2023/03/18 10:08:30;;;;;;;0.00;0.00;;;21.30;51.70;;;;;;4973841;28;20194;-59
2023/03/18 10:11:02;;;;;;;0.00;0.00;;;21.20;51.70;;;;;;4974201;28;20599;-58
2023/03/18 10:13:35;;;;;;;0.00;0.00;;;21.30;52.60;;;;;;4973957;28;20183;-59
2023/03/18 10:16:03;;;;;;;0.00;0.00;;;21.40;51.50;;;;;;4974126;28;20188;-59
2023/03/18 10:18:34;;;;;;;0.00;0.00;;;21.50;52.00;;;;;;4973485;28;20274;-59
2023/03/18 10:21:17;;;;;;;0.00;0.00;;;21.70;53.20;;;;;;4972677;28;20172;-58
2023/03/18 10:24:01;;;;;;;0.00;0.00;;;21.60;49.70;;;;;;4957074;28;20184;-58
2023/03/18 10:26:40;;;;;;;0.00;0.00;;;21.80;52.10;;;;;;4973994;28;20184;-62
2023/03/18 10:29:33;;;;;;;0.00;0.00;;;22.20;52.20;;;;;;4974296;28;20180;-59
2023/03/18 10:32:10;;;;;;;0.00;0.00;;;22.60;50.60;;;;;;4973280;28;20176;-59
2023/03/18 10:34:59;;;;;;;0.00;0.00;;;22.90;50.00;;;;;;4974103;28;20188;-59
2023/03/18 10:37:50;;;;;;;0.00;0.00;;;23.20;50.50;;;;;;4973579;28;20284;-58
2023/03/18 10:40:18;;;;;;;0.00;0.00;;;23.30;48.60;;;;;;4956794;28;20669;-58
2023/03/18 10:42:44;;;;;;;0.00;0.00;;;23.50;48.80;;;;;;4974157;28;20194;-58
2023/03/18 10:45:23;;;;;;;0.00;0.00;;;23.60;47.40;;;;;;4973894;28;20216;-58
2023/03/18 10:48:13;;;;;;;0.00;0.00;;;23.60;48.30;;;;;;4973984;28;20534;-58
2023/03/18 10:50:45;;;;;;;0.00;0.00;;;23.30;48.50;;;;;;4973989;28;20523;-58
2023/03/18 10:53:18;;;;;;;0.00;0.00;;;23.30;48.10;;;;;;4973622;28;20639;-59
2023/03/18 10:56:06;;;;;;;0.00;0.00;;;23.00;47.70;;;;;;4973804;28;20743;-59
2023/03/18 10:58:31;;;;;;;0.10;0.10;;;23.10;47.90;;;;;;4973576;28;20222;-59
2023/03/18 11:00:57;;;;;;;0.00;0.00;;;23.40;47.70;;;;;;4973605;28;20176;-59
2023/03/18 11:03:28;;;;;;;0.00;0.00;;;23.60;47.30;;;;;;4973657;28;20180;-59
2023/03/18 11:05:56;;;;;;;0.00;0.00;;;23.80;46.70;;;;;;4973387;28;20634;-59
2023/03/18 11:08:35;;;;;;;0.00;0.00;;;23.70;47.10;;;;;;4973160;28;20187;-58
2023/03/18 11:11:27;;;;;;;0.00;0.00;;;23.60;46.30;;;;;;4973469;28;20319;-59
2023/03/18 11:13:55;;;;;;;0.00;0.00;;;23.50;46.40;;;;;;4973374;28;20172;-59
2023/03/18 11:16:39;;;;;;;0.00;0.00;;;23.60;45.60;;;;;;4973209;28;20180;-59
2023/03/18 11:19:24;;;;;;;0.00;0.00;;;23.80;44.80;;;;;;4972928;28;20706;-59
2023/03/18 11:22:00;;;;;;;0.00;0.00;;;23.70;45.30;;;;;;4973223;28;20693;-59
2023/03/18 11:24:42;;;;;;;0.00;0.00;;;23.60;46.20;;;;;;4973213;28;20729;-59
2023/03/18 11:27:16;;;;;;;0.30;0.30;;;23.60;46.70;;;;;;4973093;28;20255;-59
2023/03/18 11:29:53;;;;;;;0.22;0.22;;;23.80;46.90;;;;;;4973059;28;20241;-59
2023/03/18 11:32:35;;;;;;;0.10;0.10;;;24.00;45.90;;;;;;4955628;28;20184;-59
2023/03/18 11:35:03;;;;;;;0.00;0.00;;;23.70;46.00;;;;;;4972970;28;20188;-59
2023/03/18 11:37:31;;;;;;;0.00;0.00;;;23.70;46.30;;;;;;4972749;28;20211;-59
2023/03/18 11:40:12;;;;;;;0.00;0.00;;;23.50;45.70;;;;;;4972744;28;20184;-59
2023/03/18 11:42:39;;;;;;;0.10;0.10;;;23.60;46.30;;;;;;4972820;28;20523;-59
2023/03/18 11:45:28;;;;;;;0.00;0.00;;;23.70;46.50;;;;;;4972741;28;20623;-59
2023/03/18 11:47:54;;;;;;;0.00;0.00;;;23.90;46.20;;;;;;4972618;28;20188;-59
2023/03/18 11:50:26;;;;;;;0.00;0.00;;;24.00;46.70;;;;;;4972642;28;20183;-59
2023/03/18 11:53:07;;;;;;;0.00;0.00;;;24.00;45.60;;;;;;4972599;28;20194;-59
2023/03/18 11:56:03;;;;;;;0.00;0.00;;;23.90;46.00;;;;;;4972523;28;20627;-59
2023/03/18 11:58:40;;;;;;;0.00;0.00;;;23.90;46.70;;;;;;4972511;28;20218;-59
2023/03/18 12:01:22;;;;;;;0.00;0.00;;;23.90;46.40;;;;;;4972464;28;20175;-59
2023/03/18 12:04:17;;;;;;;0.10;0.10;;;23.90;46.40;;;;;;4955293;28;20187;-59
2023/03/18 12:07:10;;;;;;;0.00;0.00;;;23.90;46.40;;;;;;4972514;28;20180;-59
2023/03/18 12:09:54;;;;;;;0.00;0.00;;;24.00;46.70;;;;;;4972491;28;20552;-59
2023/03/18 12:12:47;;;;;;;0.00;0.00;;;24.20;47.00;;;;;;4972284;28;20654;-59
2023/03/18 12:15:27;;;;;;;0.00;0.00;;;24.20;46.70;;;;;;4972083;28;20195;-59
2023/03/18 12:18:14;;;;;;;0.00;0.00;;;23.90;46.60;;;;;;4971965;28;20238;-59
2023/03/18 12:20:49;;;;;;;0.00;0.00;;;23.60;47.30;;;;;;4971745;28;20176;-57
2023/03/18 12:24:10;;;;;;;0.00;0.00;;;23.60;47.80;;;;;;4972076;28;20175;-58
2023/03/18 12:26:58;;;;;;;0.00;0.00;;;23.50;47.40;;;;;;4939311;28;20242;-57
2023/03/18 12:29:47;;;;;;;0.00;0.00;;;23.30;47.80;;;;;;4972175;28;20262;-58
2023/03/18 12:32:29;;;;;;;0.00;0.00;;;23.00;47.90;;;;;;4972096;28;20172;-58
2023/03/18 12:35:20;;;;;;;0.00;0.00;;;22.70;48.70;;;;;;4971912;28;20184;-58
2023/03/18 12:38:31;;;;;;;0.00;0.00;;;22.40;48.80;;;;;;4972070;28;20663;-58
2023/03/18 12:41:24;;;;;;;0.00;0.00;;;22.10;49.30;;;;;;4971997;28;20176;-58
2023/03/18 12:43:55;;;;;;;0.00;0.00;;;21.80;49.80;;;;;;4972000;28;20195;-58
2023/03/18 12:46:28;;;;;;;0.00;0.00;;;21.80;50.40;;;;;;4971919;28;20226;-58
2023/03/18 12:49:09;;;;;;;0.00;0.00;;;21.70;50.10;;;;;;4971939;28;20172;-58
2023/03/18 12:52:06;;;;;;;0.10;0.10;;;21.60;50.70;;;;;;4971853;28;20550;-58
2023/03/18 12:54:40;;;;;;;0.00;0.00;;;21.60;51.10;;;;;;4971785;28;20231;-58
2023/03/18 12:57:30;;;;;;;0.00;0.00;;;21.60;50.90;;;;;;4971773;28;20218;-58
2023/03/18 13:00:00;;;;;;;0.08;0.08;;;21.50;50.70;;;;;;4971802;28;20180;-58
2023/03/18 13:02:47;;;;;;;0.00;0.00;;;21.50;51.40;;;;;;4971850;28;20184;-58
2023/03/18 13:05:23;;;;;;;0.00;0.00;;;21.40;51.40;;;;;;4971586;28;20190;-58
2023/03/18 13:08:04;;;;;;;0.00;0.00;;;21.30;51.10;;;;;;4971773;28;20204;-58
2023/03/18 13:10:33;;;;;;;0.00;0.00;;;21.40;51.40;;;;;;4971847;28;20188;-58
2023/03/18 13:13:04;;;;;;;0.00;0.00;;;21.40;51.40;;;;;;4971837;28;20767;-58
2023/03/18 13:15:34;;;;;;;0.00;0.00;;;21.40;51.20;;;;;;4971727;28;20184;-58
2023/03/18 13:18:05;;;;;;;0.00;0.00;;;21.20;50.70;;;;;;4954451;28;20235;-58
2023/03/18 13:20:37;;;;;;;0.00;0.00;;;21.00;51.10;;;;;;4971078;28;20270;-57
2023/03/18 13:23:18;;;;;;;0.10;0.10;;;20.80;51.60;;;;;;4965924;28;20235;-57
2023/03/18 13:25:50;;;;;;;0.00;0.00;;;20.60;51.90;;;;;;4971155;28;20180;-57
2023/03/18 13:28:36;;;;;;;0.00;0.00;;;20.50;51.80;;;;;;4970249;28;20249;-57
2023/03/18 13:31:27;;;;;;;0.00;0.00;;;20.40;52.10;;;;;;4972011;28;20176;-57
2023/03/18 13:34:25;;;;;;;0.00;0.00;;;20.30;52.50;;;;;;4974457;28;20322;-57
2023/03/18 13:37:16;;;;;;;0.00;0.00;;;20.30;52.50;;;;;;4974843;28;20227;-58
2023/03/18 13:40:12;;;;;;;0.00;0.00;;;20.40;52.50;;;;;;4975203;28;20200;-58
2023/03/18 13:42:39;;;;;;;0.00;0.00;;;20.40;53.10;;;;;;4955807;28;20177;-58
2023/03/18 13:45:21;;;;;;;0.00;0.00;;;20.50;53.60;;;;;;4958481;28;20207;-58
2023/03/18 13:47:56;;;;;;;0.00;0.00;;;20.60;54.00;;;;;;4973919;28;20671;-58
2023/03/18 13:50:38;;;;;;;0.00;0.00;;;20.60;54.00;;;;;;4974601;28;20188;-58
2023/03/18 13:53:16;;;;;;;0.00;0.00;;;20.50;53.60;;;;;;4982989;28;20211;-58
2023/03/18 13:55:48;;;;;;;0.00;0.00;;;20.40;53.50;;;;;;4987238;28;20239;-58
2023/03/18 13:58:18;;;;;;;0.00;0.00;;;20.40;53.30;;;;;;4974286;28;20702;-57
2023/03/18 14:01:14;;;;;;;0.00;0.00;;;20.40;52.60;;;;;;4973732;28;20184;-58
2023/03/18 14:03:42;;;;;;;0.00;0.00;;;20.30;52.70;;;;;;4969767;28;20212;-57
2023/03/18 14:06:07;;;;;;;0.15;0.15;;;20.30;53.10;;;;;;4977404;28;20237;-58
2023/03/18 14:08:42;;;;;;;0.00;0.00;;;20.20;53.30;;;;;;4970937;28;20180;-58
2023/03/18 14:11:21;;;;;;;0.00;0.00;;;20.40;53.10;;;;;;4984760;28;20183;-58
2023/03/18 14:14:01;;;;;;;0.00;0.00;;;20.50;52.70;;;;;;4987480;28;20212;-58